• Join FlightAware (Why Join?)
  • Login
  • US Flag 
02:47AM EST


 

Airport Tracker/Info


-or-


 

Live Flight TrackerFlight Track Log ✈ VH-OWQ ✈ 24-Jul-2013 ✈ YPJT / JAD - YSHK / DNM

Flight Track Log - Related Links

Times and Time Zones

All times are in EDT time to prevent confusion due to time zone crossing. See the VH-OWQ flight status page for this flight to view local times or setup timezone preferences in your user account.

Time Position Orientation Groundspeed Altitude Reporting Facility
EDT Latitude Longitude Course Direction KTS MPH feet Rate Location/Type
07:18PM -32.0928 115.8547 326° Northwest 107 123 1,800  Level Aus ATC (RADAR)
07:19PM -32.0697 115.8365 326° Northwest 126 145 3,100 1,620 Climbing Aus ATC (RADAR)
07:20PM -32.0586 115.8172 304° West 124 143 4,200 1,860 Climbing Aus ATC (RADAR)
07:20PM -32.0472 115.7979 305° West 125 144 5,300 1,920 Climbing Aus ATC (RADAR)
07:21PM -32.0220 115.7819 332° Northwest 131 151 6,900 1,800 Climbing Aus ATC (RADAR)
07:22PM -31.9828 115.7677 343° North 138 159 8,800 1,800 Climbing Aus ATC (RADAR)
07:23PM -31.9593 115.7589 342° North 131 151 10,100 1,740 Climbing Aus ATC (RADAR)
07:23PM -31.9390 115.7519 344° North 130 150 11,000 1,680 Climbing Aus ATC (RADAR)
07:24PM -31.9146 115.7433 343° North 122 140 12,400 1,560 Climbing Aus ATC (RADAR)
07:25PM -31.8804 115.7308 343° North 132 152 13,800 1,320 Climbing Aus ATC (RADAR)
07:26PM -31.8512 115.7203 343° North 133 153 14,900 1,200 Climbing Aus ATC (RADAR)
07:26PM -31.8298 115.7127 343° North 137 158 15,600 1,320 Climbing Aus ATC (RADAR)
07:28PM -31.7891 115.6980 343° North 143 165 17,100 1,260 Climbing Aus ATC (RADAR)
07:28PM -31.7579 115.6868 343° North 142 163 18,100 1,140 Climbing Aus ATC (RADAR)
07:29PM -31.7258 115.6753 343° North 147 169 19,000 1,080 Climbing Aus ATC (RADAR)
07:30PM -31.7025 115.6670 343° North 150 173 19,700 1,080 Climbing Aus ATC (RADAR)
07:31PM -31.6666 115.6544 343° North 146 168 20,700 1,020 Climbing Aus ATC (RADAR)
07:32PM -31.6342 115.6428 343° North 148 170 21,500 900 Climbing Aus ATC (RADAR)
07:33PM -31.5837 115.6248 343° North 155 178 22,600 840 Climbing Aus ATC (RADAR)
07:34PM -31.5492 115.6127 343° North 157 181 23,300 780 Climbing Aus ATC (RADAR)
07:34PM -31.5181 115.6014 343° North 157 181 23,900 720 Climbing Aus ATC (RADAR)
07:35PM -31.4934 115.5926 343° North 160 184 24,300 180 Climbing Aus ATC (RADAR)
07:36PM -31.4489 115.5767 343° North 187 215 24,200 -60 Descending Aus ATC (RADAR)
07:37PM -31.4034 115.5607 343° North 207 238 24,200  Level Aus ATC (RADAR)
07:38PM -31.3556 115.5434 343° North 215 247 24,200  Level Aus ATC (RADAR)
07:39PM -31.2969 115.5225 343° North 221 254 24,200  Level Aus ATC (RADAR)
07:39PM -31.2520 115.5070 344° North 223 257 24,200  Level Aus ATC (RADAR)
07:40PM -31.2172 115.4942 343° North 225 259 24,200  Level Aus ATC (RADAR)
07:41PM -31.1718 115.4785 344° North 225 259 24,200  Level Aus ATC (RADAR)
07:41PM -31.1417 115.4675 343° North 226 260 24,200  Level Aus ATC (RADAR)
07:42PM -31.1061 115.4552 344° North 230 265 24,200  Level Aus ATC (RADAR)
07:43PM -31.0503 115.4354 343° North 229 264 24,200  Level Aus ATC (RADAR)
07:44PM -30.9888 115.4137 343° North 230 265 24,200  Level Aus ATC (RADAR)
07:44PM -30.9475 115.3990 343° North 233 268 24,200  Level Aus ATC (RADAR)
07:45PM -30.9115 115.3867 344° North 232 267 24,200  Level Aus ATC (RADAR)
07:46PM -30.8547 115.3664 343° North 233 268 24,200  Level Aus ATC (RADAR)
07:47PM -30.7932 115.3447 343° North 228 262 24,200  Level Aus ATC (RADAR)
07:48PM -30.7069 115.3152 344° North 228 262 24,200  Level Aus ATC (RADAR)
07:49PM -30.6523 115.2964 343° North 221 254 24,200  Level Aus ATC (RADAR)
07:50PM -30.6078 115.2804 343° North 221 254 24,200  Level Aus ATC (RADAR)
07:50PM -30.5741 115.2686 343° North 216 249 24,200  Level Aus ATC (RADAR)
07:51PM -30.5311 115.2534 343° North 216 249 24,200  Level Aus ATC (RADAR)
07:52PM -30.4658 115.2298 343° North 207 238 24,200  Level Aus ATC (RADAR)
07:53PM -30.4288 115.2175 344° North 206 237 24,200  Level Aus ATC (RADAR)
07:54PM -30.3964 115.2064 344° North 206 237 24,200  Level Aus ATC (RADAR)
07:54PM -30.3553 115.1921 343° North 206 237 24,200 -300 Level Aus ATC (RADAR)
07:55PM -30.2987 115.1718 343° North 215 247 23,700 -540 Descending Aus ATC (RADAR)
07:56PM -30.2490 115.1550 344° North 221 254 23,300 -540 Descending Aus ATC (RADAR)
07:57PM -30.2087 115.1410 343° North 225 259 22,900 -540 Descending Aus ATC (RADAR)
07:58PM -30.1302 115.1147 344° North 236 272 22,300 -540 Descending Aus ATC (RADAR)
07:59PM -30.0762 115.0957 343° North 242 278 21,900 -480 Descending Aus ATC (RADAR)
08:00PM -30.0321 115.0798 343° North 247 284 21,600 -540 Descending Aus ATC (RADAR)
08:00PM -29.9872 115.0634 342° North 253 291 21,200 -540 Descending Aus ATC (RADAR)
08:01PM -29.9245 115.0420 344° North 256 295 20,800 -540 Descending Aus ATC (RADAR)
08:02PM -29.8671 115.0231 344° North 255 293 20,300 -360 Descending Aus ATC (RADAR)
08:03PM -29.7947 114.9971 343° North 245 282 20,200 -60 Descending Aus ATC (RADAR)
08:04PM -29.7289 114.9765 345° North 246 283 20,200  Level Aus ATC (RADAR)
08:05PM -29.6924 114.9606 339° North 241 277 20,200  Level Aus ATC (RADAR)
08:05PM -29.6545 114.9484 344° North 242 278 20,200  Level Aus ATC (RADAR)
08:06PM -29.6168 114.9363 344° North 240 276 20,200  Level Aus ATC (RADAR)
08:06PM -29.5740 114.9220 344° North 236 272 20,200  Level Aus ATC (RADAR)
08:07PM -29.5363 114.9082 342° North 243 280 20,200  Level Aus ATC (RADAR)
08:08PM -29.4836 114.8885 342° North 241 277 20,200  Level Aus ATC (RADAR)
08:09PM -29.4298 114.8716 345° North 239 275 20,200  Level Aus ATC (RADAR)
08:09PM -29.3823 114.8552 343° North 236 272 20,200  Level Aus ATC (RADAR)
08:10PM -29.3453 114.8423 343° North 237 273 20,200  Level Aus ATC (RADAR)
08:11PM -29.2973 114.8278 345° North 237 273 20,200  Level Aus ATC (RADAR)
08:12PM -29.2339 114.8060 343° North 237 273 20,200  Level Aus ATC (RADAR)
08:13PM -29.1651 114.7838 344° North 233 268 20,200  Level Aus ATC (RADAR)
08:14PM -29.0861 114.7704 352° North 249 287 20,200  Level Aus ATC (RADAR)
08:16PM -28.9868 114.7473 349° North 242 278 20,200  Level Aus ATC (RADAR)
08:16PM -28.9358 114.7278 341° North 233 268 20,200  Level Aus ATC (RADAR)
08:17PM -28.8651 114.7131 350° North 232 267 20,300  Climbing Aus ATC (RADAR)
08:19PM -28.7643 114.6872 347° North 229 264 20,300  Level Aus ATC (RADAR)
08:20PM -28.7047 114.6635 341° North 223 257 20,300  Level Aus ATC (RADAR)
08:21PM -28.6610 114.6440 339° North 222 255 20,300  Level Aus ATC (RADAR)
08:21PM -28.6275 114.6286 338° Northwest 219 252 20,300  Level Aus ATC (RADAR)
08:22PM -28.5789 114.6088 340° North 218 251 20,300  Level Aus ATC (RADAR)
08:23PM -28.5216 114.5841 339° North 216 249 20,300  Level Aus ATC (RADAR)
08:27PM -28.3388 114.5167 341° North -6,060 Descending Aus ATC (Calculated)
08:28PM -28.2625 114.4867 325° Northwest  Level Aus ATC (Calculated)
08:28PM -28.2625 114.4867 341° North  Level Aus ATC (Calculated)
08:29PM -28.2331 114.4752 341° North  Level FlightAware Approximate
08:30PM -28.1816 114.4550 341° North  Level FlightAware Approximate
08:31PM -28.1265 114.4334 341° North  Level FlightAware Approximate
08:32PM -28.0713 114.4118 341° North  Level FlightAware Approximate
08:33PM -28.0162 114.3902 341° North  Level FlightAware Approximate
08:33PM -27.9668 114.3709 341° North  Level Aus ATC (Calculated)
08:34PM -27.9610 114.3686 341° North  Level FlightAware Approximate
08:34PM -27.9021 114.3456 360° North  Level Aus ATC (Calculated)
08:34PM -27.9021 114.3456 341° North  Level Aus ATC (Calculated)
08:36PM -27.8387 114.3209 341° North  Level FlightAware Approximate
08:37PM -27.7835 114.2995 341° North  Level FlightAware Approximate
08:37PM -27.7140 114.2725 161° South  Level Aus ATC (Calculated)
08:38PM -27.7283 114.2780 341° North  Level FlightAware Approximate
08:39PM -27.6515 114.2482 341° North  Level FlightAware Approximate
08:39PM -27.6572 114.2504 341° North  Level Aus ATC (Calculated)
08:41PM -27.5560 114.2112 341° North  Level FlightAware Approximate
08:42PM -27.5009 114.1898 341° North  Level FlightAware Approximate
08:43PM -27.4457 114.1685 341° North  Level FlightAware Approximate
08:44PM -27.3905 114.1472 341° North  Level FlightAware Approximate
08:45PM -27.3353 114.1259 341° North  Level FlightAware Approximate
08:45PM -27.3269 114.1226 341° North  Level Aus ATC (Calculated)
08:46PM -27.2801 114.1046 341° North  Level FlightAware Approximate
08:47PM -27.2275 114.0843 341° North  Level FlightAware Approximate
08:48PM -27.1723 114.0631 341° North  Level FlightAware Approximate
08:48PM -27.1479 114.0537 341° North  Level Aus ATC (Calculated)
08:50PM -27.0531 114.0173 341° North  Level FlightAware Approximate
08:51PM -26.9979 113.9961 341° North  Level FlightAware Approximate
08:52PM -26.9427 113.9750 341° North  Level FlightAware Approximate
08:53PM -26.8875 113.9538 341° North  Level FlightAware Approximate
08:54PM -26.8323 113.9327 341° North  Level FlightAware Approximate
08:55PM -26.7771 113.9116 341° North  Level FlightAware Approximate
08:56PM -26.7218 113.8906 341° North  Level FlightAware Approximate
08:57PM -26.6666 113.8695 341° North  Level FlightAware Approximate
08:58PM -26.6114 113.8485 341° North  Level FlightAware Approximate
08:59PM -26.5561 113.8275 341° North  Level FlightAware Approximate
08:59PM -26.5211 113.8142 341° North  Level Aus ATC (Calculated)
09:01PM -26.4125 113.7729 341° North  Level FlightAware Approximate
09:02PM -26.3573 113.7520 341° North  Level FlightAware Approximate
09:03PM -26.3020 113.7311 341° North  Level FlightAware Approximate
09:04PM -26.2467 113.7102 341° North  Level FlightAware Approximate
09:05PM -26.1915 113.6893 341° North  Level FlightAware Approximate
09:06PM -26.1362 113.6684 341° North  Level FlightAware Approximate
09:07PM -26.0810 113.6476 341° North  Level FlightAware Approximate
09:08PM -26.0257 113.6268 341° North  Level FlightAware Approximate
09:08PM -25.9723 113.6067 341° North  Level Aus ATC (Calculated)
09:09PM -25.9171 113.5859 341° North  Level FlightAware Approximate
09:10PM -25.8939 113.5772 341° North  Level Estimated
09:11PM -25.8939 113.5772 241° Southwest  Level Estimated
09:12PM -25.8939 113.5772 241° Southwest  Level Estimated
09:13PM -25.8939 113.5772 341° North  Level Estimated
09:14PM -25.8939 113.5772 341° North  Level Estimated
09:15PM -25.8939 113.5772 341° North  Level Estimated
09:16PM -25.8939 113.5772 341° North  Level Estimated
09:17PM -25.8939 113.5772 341° North  Level Estimated
09:18PM -25.8939 113.5772 341° North  Level Estimated
09:19PM -25.8939 113.5772 341° North  Level Estimated
09:20PM -25.8939 113.5772 341° North  Level Estimated